sensor_id;sensor_type;location;lat;lon;timestamp;P1;durP1;ratioP1;P2;durP2;ratioP2
56629;SDS011;42502;40.732;-74.254;2022-12-18T00:01:56;49.15;;;3.75;;
56629;SDS011;42502;40.732;-74.254;2022-12-18T00:03:59;58.53;;;4.13;;
56629;SDS011;42502;40.732;-74.254;2022-12-18T00:06:02;59.03;;;4.38;;
56629;SDS011;42502;40.732;-74.254;2022-12-18T00:08:03;69.60;;;4.70;;
56629;SDS011;42502;40.732;-74.254;2022-12-18T00:10:04;61.45;;;3.85;;
56629;SDS011;42502;40.732;-74.254;2022-12-18T00:12:06;57.90;;;4.20;;
56629;SDS011;42502;40.732;-74.254;2022-12-18T00:14:11;58.80;;;4.85;;
56629;SDS011;42502;40.732;-74.254;2022-12-18T00:16:14;49.65;;;4.40;;
56629;SDS011;42502;40.732;-74.254;2022-12-18T00:18:18;51.90;;;3.42;;
56629;SDS011;42502;40.732;-74.254;2022-12-18T00:20:22;49.88;;;3.80;;
56629;SDS011;42502;40.732;-74.254;2022-12-18T00:22:25;55.83;;;3.00;;
56629;SDS011;42502;40.732;-74.254;2022-12-18T00:24:26;59.05;;;4.15;;
56629;SDS011;42502;40.732;-74.254;2022-12-18T00:26:31;47.60;;;4.03;;
56629;SDS011;42502;40.732;-74.254;2022-12-18T00:28:34;58.10;;;3.78;;
56629;SDS011;42502;40.732;-74.254;2022-12-18T00:30:35;46.35;;;4.93;;
56629;SDS011;42502;40.732;-74.254;2022-12-18T00:32:35;45.45;;;3.67;;
56629;SDS011;42502;40.732;-74.254;2022-12-18T00:34:37;49.03;;;3.92;;
56629;SDS011;42502;40.732;-74.254;2022-12-18T00:36:38;45.13;;;4.25;;
56629;SDS011;42502;40.732;-74.254;2022-12-18T00:38:41;50.88;;;4.03;;
56629;SDS011;42502;40.732;-74.254;2022-12-18T00:40:42;44.63;;;3.53;;
56629;SDS011;42502;40.732;-74.254;2022-12-18T00:42:42;45.85;;;3.42;;
56629;SDS011;42502;40.732;-74.254;2022-12-18T00:44:56;44.28;;;4.00;;
56629;SDS011;42502;40.732;-74.254;2022-12-18T00:46:59;42.28;;;3.00;;
56629;SDS011;42502;40.732;-74.254;2022-12-18T00:49:00;33.92;;;3.10;;
56629;SDS011;42502;40.732;-74.254;2022-12-18T00:51:01;37.03;;;3.28;;
56629;SDS011;42502;40.732;-74.254;2022-12-18T00:53:06;40.03;;;4.50;;
56629;SDS011;42502;40.732;-74.254;2022-12-18T00:55:11;33.20;;;3.15;;
56629;SDS011;42502;40.732;-74.254;2022-12-18T00:57:15;45.70;;;4.05;;
56629;SDS011;42502;40.732;-74.254;2022-12-18T00:59:17;32.22;;;2.63;;
56629;SDS011;42502;40.732;-74.254;2022-12-18T01:01:18;31.95;;;3.22;;
56629;SDS011;42502;40.732;-74.254;2022-12-18T01:03:19;47.88;;;3.25;;
56629;SDS011;42502;40.732;-74.254;2022-12-18T01:05:20;28.05;;;2.75;;
56629;SDS011;42502;40.732;-74.254;2022-12-18T01:07:24;30.63;;;2.80;;
56629;SDS011;42502;40.732;-74.254;2022-12-18T01:09:25;27.33;;;2.47;;
56629;SDS011;42502;40.732;-74.254;2022-12-18T01:11:26;42.20;;;3.30;;
56629;SDS011;42502;40.732;-74.254;2022-12-18T01:13:27;37.08;;;3.15;;
56629;SDS011;42502;40.732;-74.254;2022-12-18T01:15:31;30.90;;;3.13;;
56629;SDS011;42502;40.732;-74.254;2022-12-18T01:17:32;33.90;;;2.95;;
56629;SDS011;42502;40.732;-74.254;2022-12-18T01:19:33;36.42;;;3.00;;
56629;SDS011;42502;40.732;-74.254;2022-12-18T01:21:34;20.45;;;2.08;;
56629;SDS011;42502;40.732;-74.254;2022-12-18T01:23:35;14.27;;;1.60;;
56629;SDS011;42502;40.732;-74.254;2022-12-18T01:25:37;27.08;;;2.13;;
56629;SDS011;42502;40.732;-74.254;2022-12-18T01:27:38;15.32;;;1.75;;
56629;SDS011;42502;40.732;-74.254;2022-12-18T01:29:39;26.45;;;1.98;;
56629;SDS011;42502;40.732;-74.254;2022-12-18T01:31:40;21.90;;;1.80;;
56629;SDS011;42502;40.732;-74.254;2022-12-18T01:33:41;20.98;;;2.13;;
56629;SDS011;42502;40.732;-74.254;2022-12-18T01:35:43;24.58;;;2.38;;
56629;SDS011;42502;40.732;-74.254;2022-12-18T01:37:44;17.27;;;1.70;;
56629;SDS011;42502;40.732;-74.254;2022-12-18T01:39:45;13.63;;;1.63;;
56629;SDS011;42502;40.732;-74.254;2022-12-18T01:41:46;18.42;;;1.55;;
56629;SDS011;42502;40.732;-74.254;2022-12-18T01:46:23;16.60;;;1.60;;
56629;SDS011;42502;40.732;-74.254;2022-12-18T01:48:25;14.50;;;1.30;;
56629;SDS011;42502;40.732;-74.254;2022-12-18T01:50:29;15.77;;;1.58;;
56629;SDS011;42502;40.732;-74.254;2022-12-18T01:52:33;15.30;;;1.48;;
56629;SDS011;42502;40.732;-74.254;2022-12-18T01:54:36;14.85;;;1.35;;
56629;SDS011;42502;40.732;-74.254;2022-12-18T01:56:37;16.77;;;1.50;;
56629;SDS011;42502;40.732;-74.254;2022-12-18T01:58:40;15.77;;;1.30;;
56629;SDS011;42502;40.732;-74.254;2022-12-18T02:00:48;15.95;;;1.30;;
56629;SDS011;42502;40.732;-74.254;2022-12-18T02:02:49;18.00;;;1.42;;
56629;SDS011;42502;40.732;-74.254;2022-12-18T02:04:50;14.68;;;1.17;;
56629;SDS011;42502;40.732;-74.254;2022-12-18T02:09:18;15.80;;;1.27;;
56629;SDS011;42502;40.732;-74.254;2022-12-18T02:16:01;14.60;;;1.30;;
56629;SDS011;42502;40.732;-74.254;2022-12-18T02:18:22;20.20;;;1.92;;
56629;SDS011;42502;40.732;-74.254;2022-12-18T02:20:32;13.45;;;1.17;;
56629;SDS011;42502;40.732;-74.254;2022-12-18T02:25:26;7.97;;;1.30;;
56629;SDS011;42502;40.732;-74.254;2022-12-18T02:27:29;11.30;;;1.42;;
56629;SDS011;42502;40.732;-74.254;2022-12-18T02:31:53;7.72;;;1.10;;
56629;SDS011;42502;40.732;-74.254;2022-12-18T02:33:58;16.50;;;1.63;;
56629;SDS011;42502;40.732;-74.254;2022-12-18T02:36:02;6.32;;;1.10;;
56629;SDS011;42502;40.732;-74.254;2022-12-18T02:38:04;11.07;;;1.00;;
56629;SDS011;42502;40.732;-74.254;2022-12-18T02:40:06;14.38;;;1.20;;
56629;SDS011;42502;40.732;-74.254;2022-12-18T02:42:09;12.38;;;1.38;;
56629;SDS011;42502;40.732;-74.254;2022-12-18T02:44:12;12.05;;;1.35;;
56629;SDS011;42502;40.732;-74.254;2022-12-18T02:48:38;9.82;;;1.23;;
56629;SDS011;42502;40.732;-74.254;2022-12-18T02:50:41;17.08;;;1.23;;
56629;SDS011;42502;40.732;-74.254;2022-12-18T03:02:22;11.88;;;1.20;;
56629;SDS011;42502;40.732;-74.254;2022-12-18T03:05:04;13.50;;;1.88;;
56629;SDS011;42502;40.732;-74.254;2022-12-18T03:06:59;15.57;;;1.48;;
56629;SDS011;42502;40.732;-74.254;2022-12-18T03:09:07;16.08;;;1.50;;
56629;SDS011;42502;40.732;-74.254;2022-12-18T03:11:12;10.02;;;1.58;;
56629;SDS011;42502;40.732;-74.254;2022-12-18T03:13:25;11.63;;;1.40;;
56629;SDS011;42502;40.732;-74.254;2022-12-18T03:15:42;8.55;;;1.60;;
56629;SDS011;42502;40.732;-74.254;2022-12-18T03:17:54;12.48;;;1.85;;
56629;SDS011;42502;40.732;-74.254;2022-12-18T03:20:14;9.18;;;1.25;;
56629;SDS011;42502;40.732;-74.254;2022-12-18T03:22:19;14.30;;;1.40;;
56629;SDS011;42502;40.732;-74.254;2022-12-18T03:26:28;14.77;;;1.75;;
56629;SDS011;42502;40.732;-74.254;2022-12-18T03:28:30;20.17;;;1.75;;
56629;SDS011;42502;40.732;-74.254;2022-12-18T03:30:36;11.43;;;1.65;;
56629;SDS011;42502;40.732;-74.254;2022-12-18T03:34:50;15.77;;;1.85;;
56629;SDS011;42502;40.732;-74.254;2022-12-18T03:38:57;12.95;;;1.67;;
56629;SDS011;42502;40.732;-74.254;2022-12-18T03:41:05;13.43;;;1.65;;
56629;SDS011;42502;40.732;-74.254;2022-12-18T03:43:11;4.82;;;1.45;;
56629;SDS011;42502;40.732;-74.254;2022-12-18T03:45:26;12.18;;;1.83;;
56629;SDS011;42502;40.732;-74.254;2022-12-18T03:47:50;10.27;;;1.70;;
56629;SDS011;42502;40.732;-74.254;2022-12-18T03:50:13;7.05;;;1.23;;
56629;SDS011;42502;40.732;-74.254;2022-12-18T03:54:36;10.07;;;1.40;;
56629;SDS011;42502;40.732;-74.254;2022-12-18T03:57:03;5.85;;;1.98;;
56629;SDS011;42502;40.732;-74.254;2022-12-18T03:59:07;9.38;;;1.80;;
56629;SDS011;42502;40.732;-74.254;2022-12-18T04:01:12;8.05;;;1.33;;
56629;SDS011;42502;40.732;-74.254;2022-12-18T04:03:15;8.35;;;1.20;;
56629;SDS011;42502;40.732;-74.254;2022-12-18T04:05:18;13.80;;;1.40;;
56629;SDS011;42502;40.732;-74.254;2022-12-18T04:07:20;6.65;;;1.30;;
56629;SDS011;42502;40.732;-74.254;2022-12-18T04:09:22;8.80;;;1.27;;
56629;SDS011;42502;40.732;-74.254;2022-12-18T04:11:23;5.50;;;1.27;;
56629;SDS011;42502;40.732;-74.254;2022-12-18T04:13:27;3.40;;;1.40;;
56629;SDS011;42502;40.732;-74.254;2022-12-18T04:15:31;8.85;;;1.10;;
56629;SDS011;42502;40.732;-74.254;2022-12-18T04:17:34;8.18;;;1.45;;
56629;SDS011;42502;40.732;-74.254;2022-12-18T04:19:35;8.60;;;1.30;;
56629;SDS011;42502;40.732;-74.254;2022-12-18T04:21:36;5.20;;;1.45;;
56629;SDS011;42502;40.732;-74.254;2022-12-18T04:23:37;3.10;;;1.10;;
56629;SDS011;42502;40.732;-74.254;2022-12-18T04:25:38;6.38;;;1.40;;
56629;SDS011;42502;40.732;-74.254;2022-12-18T04:27:39;6.72;;;1.10;;
56629;SDS011;42502;40.732;-74.254;2022-12-18T04:29:43;3.88;;;1.40;;
56629;SDS011;42502;40.732;-74.254;2022-12-18T04:31:44;4.22;;;1.00;;
56629;SDS011;42502;40.732;-74.254;2022-12-18T04:33:48;3.17;;;1.00;;
56629;SDS011;42502;40.732;-74.254;2022-12-18T04:35:48;5.05;;;1.00;;
56629;SDS011;42502;40.732;-74.254;2022-12-18T04:37:49;2.15;;;1.00;;
56629;SDS011;42502;40.732;-74.254;2022-12-18T04:39:50;7.03;;;1.17;;
56629;SDS011;42502;40.732;-74.254;2022-12-18T04:41:51;4.00;;;1.23;;
56629;SDS011;42502;40.732;-74.254;2022-12-18T04:43:52;7.20;;;1.00;;
56629;SDS011;42502;40.732;-74.254;2022-12-18T04:45:53;5.43;;;1.40;;
56629;SDS011;42502;40.732;-74.254;2022-12-18T04:47:54;3.92;;;1.00;;
56629;SDS011;42502;40.732;-74.254;2022-12-18T04:49:57;6.05;;;1.08;;
56629;SDS011;42502;40.732;-74.254;2022-12-18T04:51:57;6.13;;;1.10;;
56629;SDS011;42502;40.732;-74.254;2022-12-18T04:53:58;2.75;;;1.00;;
56629;SDS011;42502;40.732;-74.254;2022-12-18T04:56:03;5.65;;;1.20;;
56629;SDS011;42502;40.732;-74.254;2022-12-18T04:58:05;2.58;;;0.90;;
56629;SDS011;42502;40.732;-74.254;2022-12-18T05:00:06;2.85;;;0.98;;
56629;SDS011;42502;40.732;-74.254;2022-12-18T05:02:08;4.70;;;1.20;;
56629;SDS011;42502;40.732;-74.254;2022-12-18T05:04:11;4.57;;;0.93;;
56629;SDS011;42502;40.732;-74.254;2022-12-18T05:06:12;2.95;;;0.80;;
56629;SDS011;42502;40.732;-74.254;2022-12-18T05:08:13;1.63;;;0.90;;
56629;SDS011;42502;40.732;-74.254;2022-12-18T05:10:14;2.33;;;0.90;;
56629;SDS011;42502;40.732;-74.254;2022-12-18T05:12:17;3.90;;;0.88;;
56629;SDS011;42502;40.732;-74.254;2022-12-18T05:14:18;1.35;;;0.80;;
56629;SDS011;42502;40.732;-74.254;2022-12-18T05:16:19;1.75;;;0.82;;
56629;SDS011;42502;40.732;-74.254;2022-12-18T05:18:23;2.45;;;0.80;;
56629;SDS011;42502;40.732;-74.254;2022-12-18T05:20:28;1.23;;;0.80;;
56629;SDS011;42502;40.732;-74.254;2022-12-18T05:22:29;2.95;;;0.90;;
56629;SDS011;42502;40.732;-74.254;2022-12-18T05:24:32;2.58;;;0.77;;
56629;SDS011;42502;40.732;-74.254;2022-12-18T05:26:33;0.90;;;0.70;;
56629;SDS011;42502;40.732;-74.254;2022-12-18T05:28:37;1.20;;;0.80;;
56629;SDS011;42502;40.732;-74.254;2022-12-18T05:30:38;1.85;;;0.80;;
56629;SDS011;42502;40.732;-74.254;2022-12-18T05:32:39;1.13;;;0.70;;
56629;SDS011;42502;40.732;-74.254;2022-12-18T05:34:40;2.28;;;0.70;;
56629;SDS011;42502;40.732;-74.254;2022-12-18T05:36:44;3.13;;;0.73;;
56629;SDS011;42502;40.732;-74.254;2022-12-18T05:38:45;1.45;;;0.68;;
56629;SDS011;42502;40.732;-74.254;2022-12-18T05:40:47;1.10;;;0.70;;
56629;SDS011;42502;40.732;-74.254;2022-12-18T05:42:48;3.13;;;0.70;;
56629;SDS011;42502;40.732;-74.254;2022-12-18T05:44:49;1.10;;;0.60;;
56629;SDS011;42502;40.732;-74.254;2022-12-18T05:46:50;1.73;;;0.80;;
56629;SDS011;42502;40.732;-74.254;2022-12-18T05:48:51;1.10;;;0.80;;
56629;SDS011;42502;40.732;-74.254;2022-12-18T05:50:52;2.40;;;0.77;;
56629;SDS011;42502;40.732;-74.254;2022-12-18T05:52:53;2.22;;;0.65;;
56629;SDS011;42502;40.732;-74.254;2022-12-18T05:54:54;3.25;;;0.80;;
56629;SDS011;42502;40.732;-74.254;2022-12-18T05:56:55;1.40;;;0.70;;
56629;SDS011;42502;40.732;-74.254;2022-12-18T05:58:56;2.45;;;0.60;;
56629;SDS011;42502;40.732;-74.254;2022-12-18T06:00:56;0.70;;;0.60;;
56629;SDS011;42502;40.732;-74.254;2022-12-18T06:02:58;2.05;;;0.60;;
56629;SDS011;42502;40.732;-74.254;2022-12-18T06:04:59;1.48;;;0.70;;
56629;SDS011;42502;40.732;-74.254;2022-12-18T06:07:00;1.67;;;0.80;;
56629;SDS011;42502;40.732;-74.254;2022-12-18T06:09:01;1.08;;;0.70;;
56629;SDS011;42502;40.732;-74.254;2022-12-18T06:11:08;1.42;;;0.60;;
56629;SDS011;42502;40.732;-74.254;2022-12-18T06:13:09;0.70;;;0.60;;
56629;SDS011;42502;40.732;-74.254;2022-12-18T06:15:12;0.95;;;0.60;;
56629;SDS011;42502;40.732;-74.254;2022-12-18T06:17:13;0.63;;;0.52;;
56629;SDS011;42502;40.732;-74.254;2022-12-18T06:19:14;1.80;;;0.60;;
56629;SDS011;42502;40.732;-74.254;2022-12-18T06:21:16;1.50;;;0.60;;
56629;SDS011;42502;40.732;-74.254;2022-12-18T06:23:17;1.30;;;0.70;;
56629;SDS011;42502;40.732;-74.254;2022-12-18T06:25:18;0.65;;;0.47;;
56629;SDS011;42502;40.732;-74.254;2022-12-18T06:27:19;1.00;;;0.60;;
56629;SDS011;42502;40.732;-74.254;2022-12-18T06:29:20;0.70;;;0.60;;
56629;SDS011;42502;40.732;-74.254;2022-12-18T06:31:21;0.98;;;0.63;;
56629;SDS011;42502;40.732;-74.254;2022-12-18T06:33:25;3.92;;;0.70;;
56629;SDS011;42502;40.732;-74.254;2022-12-18T06:35:29;0.95;;;0.50;;
56629;SDS011;42502;40.732;-74.254;2022-12-18T06:37:30;0.85;;;0.60;;
56629;SDS011;42502;40.732;-74.254;2022-12-18T06:39:31;0.70;;;0.57;;
56629;SDS011;42502;40.732;-74.254;2022-12-18T06:41:32;1.77;;;0.73;;
56629;SDS011;42502;40.732;-74.254;2022-12-18T06:43:33;0.90;;;0.70;;
56629;SDS011;42502;40.732;-74.254;2022-12-18T06:45:34;1.13;;;0.60;;
56629;SDS011;42502;40.732;-74.254;2022-12-18T06:47:35;0.60;;;0.50;;
56629;SDS011;42502;40.732;-74.254;2022-12-18T06:49:36;0.75;;;0.47;;
56629;SDS011;42502;40.732;-74.254;2022-12-18T06:51:37;0.60;;;0.60;;
56629;SDS011;42502;40.732;-74.254;2022-12-18T06:53:38;0.85;;;0.50;;
56629;SDS011;42502;40.732;-74.254;2022-12-18T06:55:39;1.60;;;0.50;;
56629;SDS011;42502;40.732;-74.254;2022-12-18T06:57:40;1.23;;;0.52;;
56629;SDS011;42502;40.732;-74.254;2022-12-18T06:59:41;1.90;;;0.50;;
56629;SDS011;42502;40.732;-74.254;2022-12-18T07:01:42;0.80;;;0.50;;
56629;SDS011;42502;40.732;-74.254;2022-12-18T07:03:45;0.63;;;0.43;;
56629;SDS011;42502;40.732;-74.254;2022-12-18T07:05:56;1.27;;;0.60;;
56629;SDS011;42502;40.732;-74.254;2022-12-18T07:08:00;1.48;;;0.60;;
56629;SDS011;42502;40.732;-74.254;2022-12-18T07:10:01;1.75;;;0.57;;
56629;SDS011;42502;40.732;-74.254;2022-12-18T07:12:03;0.70;;;0.50;;
56629;SDS011;42502;40.732;-74.254;2022-12-18T07:14:05;0.90;;;0.50;;
56629;SDS011;42502;40.732;-74.254;2022-12-18T07:16:09;0.65;;;0.50;;
56629;SDS011;42502;40.732;-74.254;2022-12-18T07:18:12;1.10;;;0.60;;
56629;SDS011;42502;40.732;-74.254;2022-12-18T07:20:13;0.45;;;0.45;;
56629;SDS011;42502;40.732;-74.254;2022-12-18T07:22:17;2.03;;;0.60;;
56629;SDS011;42502;40.732;-74.254;2022-12-18T07:24:18;1.27;;;0.50;;
56629;SDS011;42502;40.732;-74.254;2022-12-18T07:26:19;0.70;;;0.50;;
56629;SDS011;42502;40.732;-74.254;2022-12-18T07:28:21;0.95;;;0.50;;
56629;SDS011;42502;40.732;-74.254;2022-12-18T07:30:25;1.10;;;0.60;;
56629;SDS011;42502;40.732;-74.254;2022-12-18T07:32:26;0.60;;;0.40;;
56629;SDS011;42502;40.732;-74.254;2022-12-18T07:34:27;0.68;;;0.50;;
56629;SDS011;42502;40.732;-74.254;2022-12-18T07:36:28;2.55;;;0.70;;
56629;SDS011;42502;40.732;-74.254;2022-12-18T07:38:29;0.60;;;0.50;;
56629;SDS011;42502;40.732;-74.254;2022-12-18T07:40:30;0.50;;;0.45;;
56629;SDS011;42502;40.732;-74.254;2022-12-18T07:42:31;0.50;;;0.50;;
56629;SDS011;42502;40.732;-74.254;2022-12-18T07:44:32;0.93;;;0.50;;
56629;SDS011;42502;40.732;-74.254;2022-12-18T07:46:33;0.50;;;0.45;;
56629;SDS011;42502;40.732;-74.254;2022-12-18T07:48:34;0.50;;;0.50;;
56629;SDS011;42502;40.732;-74.254;2022-12-18T07:50:35;0.50;;;0.50;;
56629;SDS011;42502;40.732;-74.254;2022-12-18T07:52:36;0.55;;;0.43;;
56629;SDS011;42502;40.732;-74.254;2022-12-18T07:54:36;0.60;;;0.45;;
56629;SDS011;42502;40.732;-74.254;2022-12-18T07:56:49;0.50;;;0.50;;
56629;SDS011;42502;40.732;-74.254;2022-12-18T07:58:50;1.13;;;0.55;;
56629;SDS011;42502;40.732;-74.254;2022-12-18T08:00:51;0.50;;;0.40;;
56629;SDS011;42502;40.732;-74.254;2022-12-18T08:02:52;0.60;;;0.47;;
56629;SDS011;42502;40.732;-74.254;2022-12-18T08:04:53;0.60;;;0.60;;
56629;SDS011;42502;40.732;-74.254;2022-12-18T08:06:54;0.50;;;0.40;;
56629;SDS011;42502;40.732;-74.254;2022-12-18T08:08:58;0.98;;;0.50;;
56629;SDS011;42502;40.732;-74.254;2022-12-18T08:10:59;0.57;;;0.50;;
56629;SDS011;42502;40.732;-74.254;2022-12-18T08:13:00;0.55;;;0.50;;
56629;SDS011;42502;40.732;-74.254;2022-12-18T08:15:04;1.40;;;0.50;;
56629;SDS011;42502;40.732;-74.254;2022-12-18T08:17:05;0.90;;;0.40;;
56629;SDS011;42502;40.732;-74.254;2022-12-18T08:19:06;1.80;;;0.60;;
56629;SDS011;42502;40.732;-74.254;2022-12-18T08:21:08;0.80;;;0.40;;
56629;SDS011;42502;40.732;-74.254;2022-12-18T08:23:09;1.02;;;0.60;;
56629;SDS011;42502;40.732;-74.254;2022-12-18T08:25:13;0.68;;;0.40;;
56629;SDS011;42502;40.732;-74.254;2022-12-18T08:27:14;0.65;;;0.55;;
56629;SDS011;42502;40.732;-74.254;2022-12-18T08:29:15;0.50;;;0.50;;
56629;SDS011;42502;40.732;-74.254;2022-12-18T08:31:22;0.60;;;0.50;;
56629;SDS011;42502;40.732;-74.254;2022-12-18T08:33:23;0.43;;;0.40;;
56629;SDS011;42502;40.732;-74.254;2022-12-18T08:35:24;0.63;;;0.40;;
56629;SDS011;42502;40.732;-74.254;2022-12-18T08:37:25;0.70;;;0.50;;
56629;SDS011;42502;40.732;-74.254;2022-12-18T08:39:26;0.73;;;0.50;;
56629;SDS011;42502;40.732;-74.254;2022-12-18T08:41:26;0.82;;;0.40;;
56629;SDS011;42502;40.732;-74.254;2022-12-18T08:43:27;0.75;;;0.50;;
56629;SDS011;42502;40.732;-74.254;2022-12-18T08:45:46;0.75;;;0.40;;
56629;SDS011;42502;40.732;-74.254;2022-12-18T08:47:50;0.60;;;0.40;;
56629;SDS011;42502;40.732;-74.254;2022-12-18T08:50:03;0.50;;;0.43;;
56629;SDS011;42502;40.732;-74.254;2022-12-18T08:52:05;0.50;;;0.50;;
56629;SDS011;42502;40.732;-74.254;2022-12-18T08:54:12;0.60;;;0.40;;
56629;SDS011;42502;40.732;-74.254;2022-12-18T08:56:16;0.70;;;0.50;;
56629;SDS011;42502;40.732;-74.254;2022-12-18T08:58:17;0.47;;;0.40;;
56629;SDS011;42502;40.732;-74.254;2022-12-18T09:00:19;0.85;;;0.50;;
56629;SDS011;42502;40.732;-74.254;2022-12-18T09:02:20;0.50;;;0.40;;
56629;SDS011;42502;40.732;-74.254;2022-12-18T09:04:24;0.60;;;0.40;;
56629;SDS011;42502;40.732;-74.254;2022-12-18T09:06:25;0.60;;;0.40;;
56629;SDS011;42502;40.732;-74.254;2022-12-18T09:08:26;0.70;;;0.40;;
56629;SDS011;42502;40.732;-74.254;2022-12-18T09:10:31;0.50;;;0.50;;
56629;SDS011;42502;40.732;-74.254;2022-12-18T09:12:32;0.40;;;0.40;;
56629;SDS011;42502;40.732;-74.254;2022-12-18T09:14:33;0.50;;;0.50;;
56629;SDS011;42502;40.732;-74.254;2022-12-18T09:16:34;0.55;;;0.40;;
56629;SDS011;42502;40.732;-74.254;2022-12-18T09:18:35;0.82;;;0.40;;
56629;SDS011;42502;40.732;-74.254;2022-12-18T09:20:36;0.60;;;0.50;;
56629;SDS011;42502;40.732;-74.254;2022-12-18T09:22:38;1.27;;;0.50;;
56629;SDS011;42502;40.732;-74.254;2022-12-18T09:24:41;0.70;;;0.50;;
56629;SDS011;42502;40.732;-74.254;2022-12-18T09:26:43;0.82;;;0.50;;
56629;SDS011;42502;40.732;-74.254;2022-12-18T09:28:44;1.45;;;0.50;;
56629;SDS011;42502;40.732;-74.254;2022-12-18T09:30:46;0.68;;;0.45;;
56629;SDS011;42502;40.732;-74.254;2022-12-18T09:32:48;1.00;;;0.40;;
56629;SDS011;42502;40.732;-74.254;2022-12-18T09:34:49;0.60;;;0.40;;
56629;SDS011;42502;40.732;-74.254;2022-12-18T09:36:50;1.63;;;0.50;;
56629;SDS011;42502;40.732;-74.254;2022-12-18T09:38:51;0.55;;;0.50;;
56629;SDS011;42502;40.732;-74.254;2022-12-18T09:40:56;1.67;;;0.50;;
56629;SDS011;42502;40.732;-74.254;2022-12-18T09:43:30;0.50;;;0.50;;
56629;SDS011;42502;40.732;-74.254;2022-12-18T09:45:39;0.57;;;0.40;;
56629;SDS011;42502;40.732;-74.254;2022-12-18T09:47:44;0.60;;;0.40;;
56629;SDS011;42502;40.732;-74.254;2022-12-18T09:49:49;0.82;;;0.40;;
56629;SDS011;42502;40.732;-74.254;2022-12-18T09:52:00;0.60;;;0.40;;
56629;SDS011;42502;40.732;-74.254;2022-12-18T09:54:18;0.68;;;0.40;;
56629;SDS011;42502;40.732;-74.254;2022-12-18T09:56:35;0.70;;;0.50;;
56629;SDS011;42502;40.732;-74.254;2022-12-18T09:58:41;0.70;;;0.50;;
56629;SDS011;42502;40.732;-74.254;2022-12-18T10:01:09;1.38;;;0.40;;
56629;SDS011;42502;40.732;-74.254;2022-12-18T10:03:12;0.55;;;0.40;;
56629;SDS011;42502;40.732;-74.254;2022-12-18T10:05:25;1.30;;;0.47;;
56629;SDS011;42502;40.732;-74.254;2022-12-18T10:08:21;1.60;;;0.50;;
56629;SDS011;42502;40.732;-74.254;2022-12-18T10:10:14;0.50;;;0.50;;
56629;SDS011;42502;40.732;-74.254;2022-12-18T10:12:35;0.68;;;0.40;;
56629;SDS011;42502;40.732;-74.254;2022-12-18T10:14:51;0.60;;;0.50;;
56629;SDS011;42502;40.732;-74.254;2022-12-18T10:19:42;1.30;;;0.40;;
56629;SDS011;42502;40.732;-74.254;2022-12-18T10:22:01;0.45;;;0.40;;
56629;SDS011;42502;40.732;-74.254;2022-12-18T10:24:17;0.55;;;0.50;;
56629;SDS011;42502;40.732;-74.254;2022-12-18T10:26:28;1.05;;;0.50;;
56629;SDS011;42502;40.732;-74.254;2022-12-18T10:28:33;0.50;;;0.45;;
56629;SDS011;42502;40.732;-74.254;2022-12-18T10:30:37;1.45;;;0.40;;
56629;SDS011;42502;40.732;-74.254;2022-12-18T10:32:39;0.60;;;0.40;;
56629;SDS011;42502;40.732;-74.254;2022-12-18T10:34:40;0.40;;;0.35;;
56629;SDS011;42502;40.732;-74.254;2022-12-18T10:36:42;0.40;;;0.40;;
56629;SDS011;42502;40.732;-74.254;2022-12-18T10:38:50;2.17;;;0.40;;
56629;SDS011;42502;40.732;-74.254;2022-12-18T10:43:03;2.38;;;0.40;;
56629;SDS011;42502;40.732;-74.254;2022-12-18T10:45:15;0.43;;;0.40;;
56629;SDS011;42502;40.732;-74.254;2022-12-18T10:47:20;1.42;;;0.40;;
56629;SDS011;42502;40.732;-74.254;2022-12-18T10:49:27;0.65;;;0.40;;
56629;SDS011;42502;40.732;-74.254;2022-12-18T10:51:31;1.48;;;0.40;;
56629;SDS011;42502;40.732;-74.254;2022-12-18T10:53:36;0.65;;;0.40;;
56629;SDS011;42502;40.732;-74.254;2022-12-18T10:55:38;0.40;;;0.40;;
56629;SDS011;42502;40.732;-74.254;2022-12-18T10:57:40;0.50;;;0.40;;
56629;SDS011;42502;40.732;-74.254;2022-12-18T10:59:50;0.55;;;0.40;;
56629;SDS011;42502;40.732;-74.254;2022-12-18T11:01:56;0.50;;;0.40;;
56629;SDS011;42502;40.732;-74.254;2022-12-18T11:03:59;2.25;;;0.43;;
56629;SDS011;42502;40.732;-74.254;2022-12-18T11:06:23;0.40;;;0.30;;
56629;SDS011;42502;40.732;-74.254;2022-12-18T11:08:24;0.70;;;0.40;;
56629;SDS011;42502;40.732;-74.254;2022-12-18T11:10:29;0.57;;;0.40;;
56629;SDS011;42502;40.732;-74.254;2022-12-18T11:12:32;0.50;;;0.40;;
56629;SDS011;42502;40.732;-74.254;2022-12-18T11:14:35;0.40;;;0.40;;
56629;SDS011;42502;40.732;-74.254;2022-12-18T11:16:53;0.40;;;0.40;;
56629;SDS011;42502;40.732;-74.254;2022-12-18T11:19:07;0.38;;;0.30;;
56629;SDS011;42502;40.732;-74.254;2022-12-18T11:21:13;0.73;;;0.40;;
56629;SDS011;42502;40.732;-74.254;2022-12-18T11:23:17;1.92;;;0.40;;
56629;SDS011;42502;40.732;-74.254;2022-12-18T11:25:23;0.85;;;0.40;;
56629;SDS011;42502;40.732;-74.254;2022-12-18T11:27:24;0.40;;;0.40;;
56629;SDS011;42502;40.732;-74.254;2022-12-18T11:29:38;2.90;;;0.40;;
56629;SDS011;42502;40.732;-74.254;2022-12-18T11:31:40;0.50;;;0.40;;
56629;SDS011;42502;40.732;-74.254;2022-12-18T11:34:25;1.88;;;0.50;;
56629;SDS011;42502;40.732;-74.254;2022-12-18T11:36:10;0.60;;;0.32;;
56629;SDS011;42502;40.732;-74.254;2022-12-18T11:40:19;1.75;;;0.47;;
56629;SDS011;42502;40.732;-74.254;2022-12-18T11:42:34;2.45;;;0.40;;
56629;SDS011;42502;40.732;-74.254;2022-12-18T11:49:33;1.65;;;0.50;;
56629;SDS011;42502;40.732;-74.254;2022-12-18T11:51:37;0.57;;;0.40;;
56629;SDS011;42502;40.732;-74.254;2022-12-18T11:53:47;6.47;;;0.50;;
56629;SDS011;42502;40.732;-74.254;2022-12-18T12:00:35;2.25;;;0.30;;
56629;SDS011;42502;40.732;-74.254;2022-12-18T12:05:05;0.98;;;0.40;;
56629;SDS011;42502;40.732;-74.254;2022-12-18T12:07:17;3.13;;;0.50;;
56629;SDS011;42502;40.732;-74.254;2022-12-18T12:10:13;2.92;;;0.40;;
56629;SDS011;42502;40.732;-74.254;2022-12-18T12:14:25;0.80;;;0.40;;
56629;SDS011;42502;40.732;-74.254;2022-12-18T12:16:41;1.20;;;0.40;;
56629;SDS011;42502;40.732;-74.254;2022-12-18T12:30:01;2.40;;;0.35;;
56629;SDS011;42502;40.732;-74.254;2022-12-18T12:32:07;4.15;;;0.40;;
56629;SDS011;42502;40.732;-74.254;2022-12-18T12:38:57;0.65;;;0.40;;
56629;SDS011;42502;40.732;-74.254;2022-12-18T12:41:02;3.58;;;0.47;;
56629;SDS011;42502;40.732;-74.254;2022-12-18T12:43:40;4.32;;;0.40;;
56629;SDS011;42502;40.732;-74.254;2022-12-18T12:48:23;2.30;;;0.40;;
56629;SDS011;42502;40.732;-74.254;2022-12-18T12:50:37;2.58;;;0.50;;
56629;SDS011;42502;40.732;-74.254;2022-12-18T12:53:01;2.88;;;0.40;;
56629;SDS011;42502;40.732;-74.254;2022-12-18T12:55:02;9.32;;;0.60;;
56629;SDS011;42502;40.732;-74.254;2022-12-18T12:57:20;9.32;;;0.60;;
56629;SDS011;42502;40.732;-74.254;2022-12-18T12:59:28;8.63;;;0.60;;
56629;SDS011;42502;40.732;-74.254;2022-12-18T13:01:58;5.40;;;0.70;;
56629;SDS011;42502;40.732;-74.254;2022-12-18T13:08:51;6.35;;;0.88;;
56629;SDS011;42502;40.732;-74.254;2022-12-18T13:10:57;3.92;;;0.70;;
56629;SDS011;42502;40.732;-74.254;2022-12-18T13:13:19;3.70;;;0.70;;
56629;SDS011;42502;40.732;-74.254;2022-12-18T13:15:21;2.67;;;0.60;;
56629;SDS011;42502;40.732;-74.254;2022-12-18T13:17:27;4.45;;;0.77;;
56629;SDS011;42502;40.732;-74.254;2022-12-18T13:19:30;13.48;;;1.13;;
56629;SDS011;42502;40.732;-74.254;2022-12-18T13:21:32;7.53;;;1.13;;
56629;SDS011;42502;40.732;-74.254;2022-12-18T13:23:35;7.75;;;0.70;;
56629;SDS011;42502;40.732;-74.254;2022-12-18T13:32:41;7.53;;;0.70;;
56629;SDS011;42502;40.732;-74.254;2022-12-18T13:34:42;5.10;;;0.70;;